Terminal Aerodrome Forecast
Issued by NWS

Home | Current Version | Previous Version | Text Only | Print | Product List | Glossary On
Versions: 1 2 3 4 5 6 7 8 9 10 11 12 13 14 15 16
000
FTUS43 KDVN 291100
TAFBRL
TAF
KBRL 291120Z 2912/3012 32015G22KT 6SM BR BKN012
      TEMPO 2912/2915 3SM BR OVC009
     FM291500 32019G30KT P6SM OVC018
     FM300000 32014KT P6SM SCT030=

USA.gov is the U.S. government's official web portal to all federal, state and local government web resources and services.